Time;durP1;ratioP1;P1;durP2;ratioP2;P2;SDS_P1;SDS_P2;PMS_P1;PMS_P2;Temp;Humidity;BMP_temperature;BMP_pressure;BME280_temperature;BME280_humidity;BME280_pressure;Samples;Min_cycle;Max_cycle;Signal;HPM_P1;HPM_P2
2024/01/18 00:02:24;;;;;;;103.75;54.05;;;;;;;3.88;100.00;97905.59;5049555;28;20028;-74
2024/01/18 00:04:50;;;;;;;106.35;53.88;;;;;;;3.89;100.00;97903.81;5049535;28;20496;-74
2024/01/18 00:07:15;;;;;;;109.97;56.65;;;;;;;3.90;100.00;97915.84;5047723;28;20033;-74
2024/01/18 00:09:41;;;;;;;104.65;54.30;;;;;;;3.90;100.00;97911.47;5049925;28;20029;-76
2024/01/18 00:12:06;;;;;;;97.55;51.70;;;;;;;3.90;100.00;97910.63;5048854;28;20512;-76
2024/01/18 00:14:32;;;;;;;103.75;54.92;;;;;;;3.90;100.00;97915.84;5028689;28;20138;-76
2024/01/18 00:16:57;;;;;;;99.22;53.00;;;;;;;3.89;100.00;97906.41;5049449;28;20473;-76
2024/01/18 00:19:23;;;;;;;99.47;53.15;;;;;;;3.88;100.00;97902.97;5048847;28;20033;-76
2024/01/18 00:21:48;;;;;;;100.18;54.13;;;;;;;3.86;100.00;97904.91;5049362;28;20115;-75
2024/01/18 00:24:14;;;;;;;99.13;52.97;;;;;;;3.86;100.00;97909.28;5049010;28;20159;-75
2024/01/18 00:26:39;;;;;;;104.03;54.70;;;;;;;3.82;100.00;97908.75;5049621;28;20481;-75
2024/01/18 00:29:04;;;;;;;104.72;54.22;;;;;;;3.86;100.00;97917.94;5049206;28;20458;-75
2024/01/18 00:31:30;;;;;;;105.97;54.95;;;;;;;3.86;100.00;97909.28;5049420;28;20029;-74
2024/01/18 00:33:58;;;;;;;108.35;55.35;;;;;;;3.82;100.00;97900.09;5048433;28;20508;-75
2024/01/18 00:36:27;;;;;;;106.28;53.88;;;;;;;3.79;100.00;97902.97;5048710;28;20029;-74
2024/01/18 00:38:53;;;;;;;104.43;56.38;;;;;;;3.79;100.00;97900.38;5046392;28;20033;-73
2024/01/18 00:41:18;;;;;;;103.43;55.83;;;;;;;3.79;100.00;97908.19;5049081;28;20028;-74
2024/01/18 00:43:44;;;;;;;103.28;56.85;;;;;;;3.79;100.00;97913.41;5043159;28;20063;-75
2024/01/18 00:46:09;;;;;;;104.13;55.17;;;;;;;3.79;100.00;97914.25;5048995;28;20547;-76
2024/01/18 00:48:34;;;;;;;102.28;56.17;;;;;;;3.78;100.00;97932.63;5045388;28;20461;-75
2024/01/18 00:51:00;;;;;;;101.40;55.78;;;;;;;3.75;100.00;97923.31;5048848;28;20083;-76
2024/01/18 00:53:26;;;;;;;103.70;55.30;;;;;;;3.74;100.00;97928.66;5048567;28;20056;-75
2024/01/18 00:55:52;;;;;;;108.55;56.00;;;;;;;3.75;100.00;97927.72;5043899;28;20047;-76
2024/01/18 00:58:17;;;;;;;106.68;56.35;;;;;;;3.76;100.00;97924.16;5048410;28;20095;-74
2024/01/18 01:00:43;;;;;;;98.63;52.85;;;;;;;3.75;100.00;97925.94;5049018;28;20032;-75
2024/01/18 01:03:08;;;;;;;100.72;56.20;;;;;;;3.77;100.00;97917.97;5048837;28;20507;-75
2024/01/18 01:05:33;;;;;;;103.63;56.17;;;;;;;3.79;100.00;97918.63;5048501;28;20044;-75
2024/01/18 01:07:59;;;;;;;100.95;55.88;;;;;;;3.80;100.00;97915.06;5048910;28;20071;-75
2024/01/18 01:10:25;;;;;;;103.97;55.08;;;;;;;3.83;100.00;97925.25;5048226;28;20037;-75
2024/01/18 01:12:50;;;;;;;97.32;54.53;;;;;;;3.80;100.00;97921.09;5048403;28;20048;-75
2024/01/18 01:15:16;;;;;;;97.35;52.78;;;;;;;3.80;100.00;97920.28;5048156;28;20029;-74
2024/01/18 01:17:41;;;;;;;97.53;53.20;;;;;;;3.80;100.00;97907.25;5048749;28;20029;-75
2024/01/18 01:20:09;;;;;;;96.22;53.20;;;;;;;3.82;100.00;97913.16;5047391;28;20118;-75
2024/01/18 01:22:35;;;;;;;95.20;52.95;;;;;;;3.84;100.00;97921.63;5026796;28;20495;-75
2024/01/18 01:25:01;;;;;;;93.43;53.97;;;;;;;3.84;100.00;97912.03;5048682;28;20110;-75
2024/01/18 01:27:26;;;;;;;104.60;54.67;;;;;;;3.83;100.00;97899.16;5048430;28;20076;-75
2024/01/18 01:29:52;;;;;;;98.28;53.95;;;;;;;3.82;100.00;97911.38;5048863;28;20112;-75
2024/01/18 01:32:17;;;;;;;98.72;52.83;;;;;;;3.82;100.00;97919.19;5030780;28;20029;-74
2024/01/18 01:34:43;;;;;;;99.28;53.50;;;;;;;3.81;100.00;97914.09;5031022;28;20040;-72
2024/01/18 01:37:08;;;;;;;98.70;53.97;;;;;;;3.83;100.00;97914.81;5047803;28;20033;-74
2024/01/18 01:39:34;;;;;;;102.22;51.80;;;;;;;3.83;100.00;97906.97;5048400;28;20051;-75
2024/01/18 01:41:59;;;;;;;103.07;56.40;;;;;;;3.85;100.00;97912.84;5049386;28;20037;-73
2024/01/18 01:44:25;;;;;;;103.78;56.60;;;;;;;3.86;100.00;97919.72;5048035;28;20029;-73
2024/01/18 01:46:50;;;;;;;99.40;53.60;;;;;;;3.87;100.00;97921.38;5048794;28;20121;-74
2024/01/18 01:49:15;;;;;;;98.20;54.63;;;;;;;3.87;100.00;97931.81;5048514;28;20029;-75
2024/01/18 01:51:48;;;;;;;103.25;53.97;;;;;;;3.85;100.00;97944.16;5048750;28;20095;-74
2024/01/18 01:54:19;;;;;;;104.05;53.42;;;;;;;3.85;100.00;97925.91;5048030;28;20458;-75
2024/01/18 01:56:47;;;;;;;94.90;52.92;;;;;;;3.85;100.00;97923.28;5030276;28;20063;-74
2024/01/18 01:59:14;;;;;;;99.75;54.90;;;;;;;3.86;100.00;97911.91;5044599;28;20060;-75
2024/01/18 02:01:41;;;;;;;101.63;54.85;;;;;;;3.85;100.00;97907.63;5046070;28;20033;-74
2024/01/18 02:04:07;;;;;;;91.07;51.78;;;;;;;3.84;100.00;97895.53;5046462;28;20518;-73
2024/01/18 02:06:36;;;;;;;98.88;52.88;;;;;;;3.82;100.00;97897.50;5051708;28;20029;-73
2024/01/18 02:09:02;;;;;;;101.60;53.42;;;;;;;3.80;100.00;97904.63;5051925;28;20060;-73
2024/01/18 02:11:28;;;;;;;97.60;54.13;;;;;;;3.77;100.00;97905.72;5051911;28;20091;-74
2024/01/18 02:13:57;;;;;;;100.53;53.50;;;;;;;3.71;100.00;97899.28;5051812;28;20025;-74
2024/01/18 02:16:23;;;;;;;95.18;51.53;;;;;;;3.67;100.00;97890.09;5052059;28;20174;-75
2024/01/18 02:18:48;;;;;;;94.80;51.85;;;;;;;3.64;100.00;97869.53;5052369;28;20545;-75
2024/01/18 02:21:14;;;;;;;95.75;53.78;;;;;;;3.63;100.00;97880.09;5051819;28;20071;-76
2024/01/18 02:23:45;;;;;;;102.20;55.50;;;;;;;3.61;100.00;97880.22;5051936;28;20037;-75
2024/01/18 02:26:10;;;;;;;;;;;;;;;3.59;100.00;97882.13;5052051;28;20029;-74
2024/01/18 02:28:36;;;;;;;102.75;54.78;;;;;;;3.55;100.00;97878.16;5051520;28;19947;-75
2024/01/18 02:31:01;;;;;;;102.50;54.58;;;;;;;3.57;100.00;97876.25;5051382;28;20443;-75
2024/01/18 02:33:27;;;;;;;103.28;54.08;;;;;;;3.61;100.00;97885.44;5051446;28;20037;-75
2024/01/18 02:35:52;;;;;;;104.25;54.85;;;;;;;3.62;100.00;97881.88;5051145;28;20053;-74
2024/01/18 02:38:18;;;;;;;101.18;55.78;;;;;;;3.60;100.00;97862.91;5050895;28;20041;-74
2024/01/18 02:40:45;;;;;;;99.30;53.63;;;;;;;3.59;100.00;97871.69;5050749;28;20066;-75
2024/01/18 02:43:10;;;;;;;107.40;57.05;;;;;;;3.57;100.00;97858.00;5044986;28;20033;-75
2024/01/18 02:45:36;;;;;;;105.10;57.15;;;;;;;3.56;100.00;97866.78;5051318;28;20292;-75
2024/01/18 02:48:03;;;;;;;104.80;55.30;;;;;;;3.56;100.00;97865.97;5051069;28;20083;-74
2024/01/18 02:50:29;;;;;;;106.95;57.92;;;;;;;3.57;100.00;97867.59;5050890;28;20036;-74
2024/01/18 02:52:54;;;;;;;108.90;57.05;;;;;;;3.56;100.00;97866.78;5051265;28;20033;-74
2024/01/18 02:55:21;;;;;;;102.20;55.38;;;;;;;3.58;100.00;97875.31;5050371;28;20029;-74
2024/01/18 02:57:46;;;;;;;103.32;54.53;;;;;;;3.59;100.00;97857.88;5050672;28;20045;-74
2024/01/18 03:00:12;;;;;;;105.28;56.85;;;;;;;3.56;100.00;97860.75;5050580;28;20111;-74
2024/01/18 03:02:38;;;;;;;104.47;55.22;;;;;;;3.55;100.00;97865.13;5050873;28;20043;-76
2024/01/18 03:05:03;;;;;;;102.95;56.88;;;;;;;3.56;100.00;97845.91;5050696;28;20087;-75
2024/01/18 03:07:29;;;;;;;112.55;57.22;;;;;;;3.56;100.00;97845.91;5050980;28;20027;-76
2024/01/18 03:09:54;;;;;;;98.82;54.17;;;;;;;3.52;100.00;97849.78;5050786;28;20112;-75
2024/01/18 03:12:20;;;;;;;113.60;57.20;;;;;;;3.51;100.00;97861.16;5049986;28;20545;-75
2024/01/18 03:14:45;;;;;;;105.35;55.63;;;;;;;3.50;100.00;97851.69;5050564;28;20037;-75
2024/01/18 03:17:11;;;;;;;107.95;57.80;;;;;;;3.48;100.00;97852.78;5049721;28;20032;-74
2024/01/18 03:19:36;;;;;;;109.97;57.80;;;;;;;3.45;100.00;97848.69;5050387;28;20392;-74
2024/01/18 03:22:02;;;;;;;113.68;57.05;;;;;;;3.41;100.00;97836.91;5050222;28;20031;-74
2024/01/18 03:24:27;;;;;;;114.60;59.45;;;;;;;3.42;100.00;97848.94;5050384;28;20519;-74
2024/01/18 03:26:52;;;;;;;112.40;58.30;;;;;;;3.26;100.00;97856.53;5049887;28;20048;-75
2024/01/18 03:29:18;;;;;;;106.07;57.45;;;;;;;3.35;100.00;97847.88;5049294;28;20029;-75
2024/01/18 03:31:43;;;;;;;107.05;57.80;;;;;;;3.36;100.00;97849.50;5050103;28;20048;-74
2024/01/18 03:34:09;;;;;;;111.28;60.20;;;;;;;3.35;100.00;97853.09;5049874;28;20028;-75
2024/01/18 03:36:34;;;;;;;127.30;60.65;;;;;;;3.29;100.00;97853.66;5049912;28;20436;-75
2024/01/18 03:39:00;;;;;;;137.77;59.75;;;;;;;3.23;100.00;97833.34;5050033;28;20045;-75
2024/01/18 03:41:25;;;;;;;116.15;60.45;;;;;;;3.17;100.00;97833.91;5049452;28;20106;-75
2024/01/18 03:43:50;;;;;;;123.32;61.03;;;;;;;3.12;100.00;97846.53;5030975;28;20114;-75
2024/01/18 03:46:16;;;;;;;116.60;59.30;;;;;;;3.12;100.00;97849.13;5049364;28;20127;-73
2024/01/18 03:48:42;;;;;;;118.80;58.28;;;;;;;3.13;100.00;97842.94;5049551;28;20361;-75
2024/01/18 03:51:07;;;;;;;243.40;58.78;;;;;;;2.81;100.00;97848.44;5049612;28;20079;-74
2024/01/18 03:53:34;;;;;;;102.88;55.72;;;;;;;2.92;100.00;97845.69;5049618;28;20497;-75
2024/01/18 03:56:00;;;;;;;199.00;56.70;;;;;;;2.93;100.00;97851.72;5049617;28;20039;-74
2024/01/18 03:58:26;;;;;;;220.32;57.53;;;;;;;2.89;100.00;97859.81;5048582;28;20029;-75
2024/01/18 04:00:52;;;;;;;199.52;55.92;;;;;;;2.76;100.00;97872.28;5049517;28;20021;-74
2024/01/18 04:03:18;;;;;;;210.05;56.03;;;;;;;2.67;100.00;97861.84;5031096;28;20124;-74
2024/01/18 04:05:43;;;;;;;131.75;54.17;;;;;;;2.65;100.00;97843.72;5049351;28;20060;-74
2024/01/18 04:08:09;;;;;;;123.18;55.33;;;;;;;2.62;100.00;97841.41;5048920;28;20037;-75
2024/01/18 04:10:35;;;;;;;142.98;55.63;;;;;;;2.64;100.00;97846.50;5049475;28;20032;-74
2024/01/18 04:13:01;;;;;;;218.73;56.38;;;;;;;2.61;100.00;97863.19;5048558;28;20048;-74
2024/01/18 04:15:26;;;;;;;188.52;55.33;;;;;;;2.47;100.00;97879.22;5048339;28;20366;-74
2024/01/18 04:17:52;;;;;;;153.35;58.45;;;;;;;2.43;100.00;97864.78;5030865;28;20039;-74
2024/01/18 04:20:21;;;;;;;137.43;59.17;;;;;;;2.41;100.00;97853.72;5048557;28;20024;-74
2024/01/18 04:22:48;;;;;;;229.73;56.95;;;;;;;2.43;100.00;97864.78;5049119;28;20481;-74
2024/01/18 04:25:13;;;;;;;170.13;55.20;;;;;;;2.38;100.00;97865.19;5048876;28;20040;-74
2024/01/18 04:27:39;;;;;;;170.98;54.58;;;;;;;2.33;100.00;97854.38;5048506;28;20037;-74
2024/01/18 04:30:05;;;;;;;143.20;56.35;;;;;;;2.36;100.00;97863.66;5048432;28;20099;-75
2024/01/18 04:32:30;;;;;;;223.95;57.03;;;;;;;2.26;100.00;97873.25;5048949;28;20346;-75
2024/01/18 04:34:56;;;;;;;211.88;54.97;;;;;;;2.19;100.00;97864.31;5031351;28;20079;-73
2024/01/18 04:37:21;;;;;;;185.13;54.63;;;;;;;2.15;100.00;97849.91;5048663;28;20032;-74
2024/01/18 04:39:47;;;;;;;214.30;53.80;;;;;;;2.10;100.00;97850.31;5048983;28;20040;-74
2024/01/18 04:42:12;;;;;;;200.15;55.05;;;;;;;2.00;100.00;97847.66;5048713;28;20029;-74
2024/01/18 04:44:39;;;;;;;243.65;56.67;;;;;;;1.97;100.00;97842.72;5048279;28;20458;-74
2024/01/18 04:47:06;;;;;;;152.95;56.30;;;;;;;1.98;100.00;97854.78;5044218;28;20488;-73
2024/01/18 04:49:31;;;;;;;141.02;55.92;;;;;;;1.99;100.00;97853.84;5048498;28;20067;-74
2024/01/18 04:51:57;;;;;;;119.00;54.15;;;;;;;2.06;100.00;97852.34;5048704;28;20037;-75
2024/01/18 04:54:22;;;;;;;150.85;50.63;;;;;;;1.99;100.00;97851.25;5048470;28;20417;-74
2024/01/18 04:56:49;;;;;;;136.25;52.38;;;;;;;1.99;100.00;97848.63;5030751;28;20032;-75
2024/01/18 04:59:14;;;;;;;113.95;50.70;;;;;;;1.98;100.00;97854.78;5048267;28;20098;-75
2024/01/18 05:01:41;;;;;;;128.85;50.65;;;;;;;2.02;100.00;97855.34;5048393;28;20024;-75
2024/01/18 05:04:07;;;;;;;180.38;50.85;;;;;;;1.98;100.00;97859.16;5043442;28;20064;-76
2024/01/18 05:06:32;;;;;;;125.50;48.75;;;;;;;1.93;100.00;97861.34;5030883;28;20112;-73
2024/01/18 05:08:58;;;;;;;130.60;48.92;;;;;;;1.86;100.00;97848.03;5048626;28;20092;-74
2024/01/18 05:11:25;;;;;;;133.48;49.38;;;;;;;1.82;100.00;97831.03;5047246;28;20053;-75
2024/01/18 05:13:50;;;;;;;165.48;50.55;;;;;;;1.80;100.00;97835.53;5048522;28;20107;-74
2024/01/18 05:16:16;;;;;;;89.07;48.80;;;;;;;1.80;100.00;97825.13;5047922;28;20057;-74
2024/01/18 05:18:42;;;;;;;98.32;52.85;;;;;;;1.83;100.00;97814.47;5048273;28;20392;-74
2024/01/18 05:21:07;;;;;;;121.60;50.20;;;;;;;1.86;100.00;97829.00;5026936;28;20029;-74
2024/01/18 05:23:32;;;;;;;118.30;48.25;;;;;;;1.86;100.00;97844.59;5048749;28;20039;-75
2024/01/18 05:25:58;;;;;;;162.70;51.92;;;;;;;1.88;100.00;97848.72;5049358;28;20630;-74
2024/01/18 05:28:23;;;;;;;118.28;51.03;;;;;;;1.85;100.00;97841.16;5048343;28;20081;-75
2024/01/18 05:30:50;;;;;;;156.05;50.05;;;;;;;1.85;100.00;97869.78;5048706;28;20111;-74
2024/01/18 05:33:15;;;;;;;121.00;46.40;;;;;;;1.63;100.00;97881.16;5047903;28;20041;-75
2024/01/18 05:35:41;;;;;;;130.13;49.78;;;;;;;1.50;100.00;97884.91;5048788;28;20040;-73
2024/01/18 05:38:06;;;;;;;136.35;50.60;;;;;;;1.18;100.00;97883.16;5048683;28;20196;-74
2024/01/18 05:40:33;;;;;;;119.60;51.53;;;;;;;1.16;100.00;97872.09;5051441;28;20033;-75
2024/01/18 05:42:58;;;;;;;141.00;52.15;;;;;;;1.27;100.00;97863.41;5052823;28;20032;-74
2024/01/18 05:45:24;;;;;;;114.40;51.40;;;;;;;1.33;100.00;97869.88;5055124;28;20021;-76
2024/01/18 05:47:49;;;;;;;201.75;51.78;;;;;;;1.18;100.00;97883.16;5059126;28;20037;-76
2024/01/18 05:50:15;;;;;;;117.15;52.22;;;;;;;1.35;100.00;97889.59;5056944;28;20032;-77
2024/01/18 05:52:40;;;;;;;140.88;52.78;;;;;;;1.48;100.00;97894.59;5056758;28;20477;-76
2024/01/18 05:55:06;;;;;;;124.60;51.75;;;;;;;1.46;100.00;97888.72;5060762;28;20473;-76
2024/01/18 05:57:32;;;;;;;86.78;51.72;;;;;;;1.56;100.00;97885.22;5056799;28;20555;-74
2024/01/18 05:59:58;;;;;;;103.60;53.30;;;;;;;1.59;100.00;97884.94;5057683;28;20037;-74
2024/01/18 06:02:23;;;;;;;113.30;55.78;;;;;;;1.59;100.00;97884.16;5052927;28;20093;-74
2024/01/18 06:04:49;;;;;;;122.22;54.38;;;;;;;1.61;100.00;97879.63;5051996;28;20504;-75
2024/01/18 06:07:14;;;;;;;123.45;55.45;;;;;;;1.51;100.00;97891.75;5051507;28;20029;-74
2024/01/18 06:09:39;;;;;;;141.73;54.50;;;;;;;1.41;100.00;97902.09;5052301;28;20032;-78
2024/01/18 06:12:06;;;;;;;141.70;55.65;;;;;;;1.28;100.00;97895.41;5050283;28;20148;-75
2024/01/18 06:14:32;;;;;;;128.18;57.17;;;;;;;1.21;100.00;97889.88;5052268;28;20036;-77
2024/01/18 06:16:57;;;;;;;183.27;60.35;;;;;;;1.19;100.00;97892.59;5051051;28;20040;-75
2024/01/18 06:19:23;;;;;;;149.55;60.95;;;;;;;1.29;100.00;97907.47;5049089;28;20915;-73
2024/01/18 06:21:48;;;;;;;173.05;62.80;;;;;;;1.29;100.00;97895.31;5031943;28;20033;-76
2024/01/18 06:24:14;;;;;;;145.80;60.42;;;;;;;1.34;100.00;97880.16;5048951;28;20072;-73
2024/01/18 06:26:39;;;;;;;129.13;59.60;;;;;;;1.28;100.00;97885.03;5051228;28;20107;-72
2024/01/18 06:29:04;;;;;;;117.72;62.70;;;;;;;1.34;100.00;97884.53;5051625;28;20029;-73
2024/01/18 06:31:31;;;;;;;171.57;61.78;;;;;;;1.29;100.00;97881.47;5031906;28;20493;-75
2024/01/18 06:33:56;;;;;;;141.65;64.15;;;;;;;1.24;100.00;97872.25;5049647;28;20036;-75
2024/01/18 06:36:24;;;;;;;127.75;64.18;;;;;;;1.35;100.00;97876.59;5048644;28;20393;-74
2024/01/18 06:38:51;;;;;;;114.97;62.63;;;;;;;1.45;100.00;97881.88;5051036;28;20135;-73
2024/01/18 06:41:17;;;;;;;129.98;62.17;;;;;;;1.50;100.00;97870.13;5050831;28;20100;-75
2024/01/18 06:43:43;;;;;;;116.43;63.20;;;;;;;1.58;100.00;97872.09;5051088;28;20033;-73
2024/01/18 06:46:17;;;;;;;131.13;62.95;;;;;;;1.66;100.00;97893.06;5051123;28;20128;-73
2024/01/18 06:48:50;;;;;;;115.63;61.75;;;;;;;1.63;100.00;97896.78;5048888;28;20049;-73
2024/01/18 06:51:16;;;;;;;125.22;61.03;;;;;;;1.61;100.00;97893.47;5035752;28;20033;-74
2024/01/18 06:53:42;;;;;;;126.53;59.50;;;;;;;1.65;100.00;97900.03;5051124;28;20036;-75
2024/01/18 06:56:12;;;;;;;110.88;57.78;;;;;;;1.65;100.00;97891.41;5054776;28;20411;-75
2024/01/18 06:58:37;;;;;;;114.47;58.87;;;;;;;1.64;100.00;97877.63;5060956;28;20036;-75
2024/01/18 07:01:03;;;;;;;99.63;57.25;;;;;;;1.67;100.00;97875.69;5056157;28;20040;-74
2024/01/18 07:03:30;;;;;;;111.53;56.75;;;;;;;1.66;100.00;97900.88;5060673;28;20047;-75
2024/01/18 07:05:56;;;;;;;104.68;58.15;;;;;;;1.76;100.00;97916.56;5050299;28;20037;-76
2024/01/18 07:08:22;;;;;;;103.38;56.28;;;;;;;1.76;100.00;97921.75;5048933;28;20758;-75
2024/01/18 07:10:48;;;;;;;102.95;53.58;;;;;;;1.56;100.00;97905.19;5052977;28;20507;-75
2024/01/18 07:13:14;;;;;;;107.85;54.03;;;;;;;1.61;100.00;97892.63;5050749;28;20045;-75
2024/01/18 07:15:40;;;;;;;104.30;53.28;;;;;;;1.63;100.00;97898.53;5052078;28;20550;-76
2024/01/18 07:18:05;;;;;;;99.30;53.38;;;;;;;1.67;100.00;97904.28;5053195;28;20124;-75
2024/01/18 07:20:30;;;;;;;90.00;52.83;;;;;;;1.76;100.00;97916.56;5051595;28;20040;-75
2024/01/18 07:22:56;;;;;;;94.50;52.25;;;;;;;1.80;100.00;97913.56;5050149;28;20031;-74
2024/01/18 07:25:21;;;;;;;92.25;53.15;;;;;;;1.83;100.00;97912.47;5055544;28;20048;-73
2024/01/18 07:27:48;;;;;;;116.60;54.80;;;;;;;1.75;100.00;97913.13;5061423;28;20025;-75
2024/01/18 07:30:14;;;;;;;89.55;53.65;;;;;;;1.81;100.00;97910.00;5052816;28;20033;-75
2024/01/18 07:32:40;;;;;;;92.07;52.42;;;;;;;1.88;100.00;97905.13;5032491;28;20028;-74
2024/01/18 07:35:06;;;;;;;90.55;51.72;;;;;;;1.93;100.00;97902.97;5050195;28;20025;-74
2024/01/18 07:37:32;;;;;;;90.00;52.53;;;;;;;1.92;100.00;97907.34;5050090;28;20346;-74
2024/01/18 07:39:57;;;;;;;92.72;52.20;;;;;;;1.83;100.00;97917.66;5050119;28;20449;-74
2024/01/18 07:42:22;;;;;;;93.03;52.40;;;;;;;1.78;100.00;97893.81;5049865;28;20040;-75
2024/01/18 07:44:48;;;;;;;94.43;53.20;;;;;;;1.90;100.00;97892.78;5050052;28;20036;-74
2024/01/18 07:47:13;;;;;;;100.75;54.22;;;;;;;1.84;100.00;97909.75;5049626;28;20037;-75
2024/01/18 07:49:45;;;;;;;94.05;52.53;;;;;;;1.92;100.00;97902.13;5032239;28;20032;-74
2024/01/18 07:52:14;;;;;;;93.93;52.58;;;;;;;1.96;100.00;97895.72;5031180;28;20024;-75
2024/01/18 07:54:39;;;;;;;93.82;53.40;;;;;;;1.92;100.00;97896.94;5049336;28;20056;-75
2024/01/18 07:57:05;;;;;;;97.75;55.20;;;;;;;2.00;100.00;97897.09;5049503;28;20033;-75
2024/01/18 07:59:31;;;;;;;95.90;55.55;;;;;;;2.05;100.00;97894.13;5048121;28;20392;-75
2024/01/18 08:01:56;;;;;;;90.22;51.58;;;;;;;2.06;100.00;97883.56;5049562;28;20137;-75
2024/01/18 08:04:22;;;;;;;96.07;52.20;;;;;;;2.12;100.00;97886.63;5048744;28;20545;-74
2024/01/18 08:06:48;;;;;;;97.05;52.45;;;;;;;2.14;100.00;97900.31;5049763;28;20032;-75
2024/01/18 08:09:14;;;;;;;95.38;52.20;;;;;;;1.95;100.00;97907.06;5047802;28;20481;-75
2024/01/18 08:11:40;;;;;;;97.00;52.17;;;;;;;1.96;100.00;97898.31;5044635;28;20112;-74
2024/01/18 08:14:06;;;;;;;101.07;53.50;;;;;;;1.86;100.00;97887.03;5045542;28;20116;-77
2024/01/18 08:16:31;;;;;;;109.35;50.58;;;;;;;1.84;100.00;97886.34;5049866;28;20128;-74
2024/01/18 08:18:57;;;;;;;89.70;48.08;;;;;;;1.65;100.00;97909.63;5049745;28;20035;-75
2024/01/18 08:21:23;;;;;;;95.45;50.40;;;;;;;1.82;100.00;97901.25;5049608;28;20385;-75
2024/01/18 08:23:48;;;;;;;97.15;51.45;;;;;;;1.80;100.00;97902.34;5049468;28;20033;-75
2024/01/18 08:26:15;;;;;;;117.18;52.03;;;;;;;1.74;100.00;97900.25;5049238;28;20538;-76
2024/01/18 08:28:44;;;;;;;97.43;51.33;;;;;;;1.72;100.00;97889.97;5049403;28;20028;-74
2024/01/18 08:31:09;;;;;;;104.50;52.03;;;;;;;1.69;100.00;97911.03;5047841;28;20025;-74
2024/01/18 08:33:35;;;;;;;121.32;52.05;;;;;;;1.59;100.00;97910.16;5049173;28;20101;-75
2024/01/18 08:36:00;;;;;;;101.90;51.25;;;;;;;1.61;100.00;97909.06;5049110;28;20037;-74
2024/01/18 08:38:26;;;;;;;122.20;53.15;;;;;;;1.63;100.00;97916.75;5049085;28;20571;-76
2024/01/18 08:40:52;;;;;;;104.63;54.42;;;;;;;1.59;100.00;97916.16;5048777;28;20048;-74
2024/01/18 08:43:22;;;;;;;114.90;53.50;;;;;;;1.53;100.00;97926.25;5048532;28;20028;-75
2024/01/18 08:45:48;;;;;;;113.30;56.30;;;;;;;1.56;100.00;97941.59;5049244;28;20037;-73
2024/01/18 08:48:13;;;;;;;124.43;55.65;;;;;;;1.54;100.00;97940.88;5048378;28;20555;-75
2024/01/18 08:50:38;;;;;;;108.35;54.03;;;;;;;1.54;100.00;97936.50;5049130;28;20029;-74
2024/01/18 08:53:04;;;;;;;106.60;55.80;;;;;;;1.58;100.00;97939.69;5048649;28;20033;-74
2024/01/18 08:55:29;;;;;;;104.85;51.92;;;;;;;1.66;100.00;97939.88;5048105;28;20057;-74
2024/01/18 08:57:55;;;;;;;106.45;54.97;;;;;;;1.72;100.00;97936.75;5030357;28;20076;-73
2024/01/18 09:00:21;;;;;;;115.45;54.00;;;;;;;1.71;100.00;97940.31;5030326;28;20495;-75
2024/01/18 09:02:47;;;;;;;108.43;54.58;;;;;;;1.82;100.00;97937.69;5048511;28;20040;-75
2024/01/18 09:05:13;;;;;;;98.63;53.15;;;;;;;1.96;100.00;97924.31;5045956;28;20029;-75
2024/01/18 09:07:39;;;;;;;101.55;52.05;;;;;;;2.05;100.00;97913.16;5048310;28;20426;-74
2024/01/18 09:10:07;;;;;;;95.72;49.63;;;;;;;2.04;100.00;97915.88;5048357;28;20043;-74
2024/01/18 09:12:32;;;;;;;97.10;50.00;;;;;;;2.06;100.00;97914.00;5048235;28;20051;-75
2024/01/18 09:14:58;;;;;;;104.30;49.55;;;;;;;1.91;100.00;97916.09;5048101;28;20025;-74
2024/01/18 09:17:23;;;;;;;88.93;48.22;;;;;;;1.87;100.00;97925.09;5030060;28;20543;-74
2024/01/18 09:19:49;;;;;;;96.07;49.63;;;;;;;2.06;100.00;97916.59;5048325;28;20029;-74
2024/01/18 09:22:15;;;;;;;94.43;48.95;;;;;;;2.05;100.00;97913.16;5047836;28;20033;-75
2024/01/18 09:24:44;;;;;;;93.97;47.58;;;;;;;2.04;100.00;97926.28;5048444;28;20021;-74
2024/01/18 09:27:12;;;;;;;94.45;48.72;;;;;;;2.08;100.00;97924.25;5044370;28;20029;-74
2024/01/18 09:29:38;;;;;;;91.25;49.72;;;;;;;2.05;100.00;97922.75;5044327;28;20045;-75
2024/01/18 09:32:06;;;;;;;90.47;49.10;;;;;;;2.14;100.00;97923.72;5048047;28;20025;-75
2024/01/18 09:34:31;;;;;;;89.50;48.13;;;;;;;2.20;100.00;97928.41;5048197;28;20064;-76
2024/01/18 09:36:57;;;;;;;94.50;47.63;;;;;;;2.11;100.00;97924.00;5047880;28;20134;-75
2024/01/18 09:39:23;;;;;;;105.85;49.13;;;;;;;1.96;100.00;97919.13;5030059;28;20397;-75
2024/01/18 09:41:50;;;;;;;91.63;47.72;;;;;;;2.09;100.00;97921.53;5048167;28;20473;-76
2024/01/18 09:44:31;;;;;;;89.97;47.50;;;;;;;2.10;100.00;97924.94;5047485;28;20058;-76
2024/01/18 09:46:58;;;;;;;95.18;47.28;;;;;;;2.12;100.00;97923.84;5048188;28;20390;-75
2024/01/18 09:49:25;;;;;;;104.55;48.78;;;;;;;1.97;100.00;97920.78;5047788;28;20402;-75
2024/01/18 09:51:51;;;;;;;94.22;48.35;;;;;;;1.99;100.00;97918.88;5047780;28;20072;-76
2024/01/18 09:54:17;;;;;;;91.80;49.33;;;;;;;2.06;100.00;97912.19;5029673;28;20060;-74
2024/01/18 09:56:45;;;;;;;95.85;50.17;;;;;;;2.15;100.00;97914.97;5048235;28;20037;-74
2024/01/18 09:59:13;;;;;;;98.80;49.83;;;;;;;2.03;100.00;97929.84;5047394;28;20040;-74
2024/01/18 10:01:39;;;;;;;95.78;48.45;;;;;;;2.10;100.00;97919.75;5044428;28;20029;-77
2024/01/18 10:04:07;;;;;;;95.45;52.30;;;;;;;2.15;100.00;97921.00;5047587;28;20531;-75
2024/01/18 10:06:32;;;;;;;92.38;49.90;;;;;;;2.22;100.00;97908.28;5047473;28;20438;-74
2024/01/18 10:08:58;;;;;;;92.68;49.28;;;;;;;2.29;100.00;97925.03;5047063;28;20029;-73
2024/01/18 10:11:23;;;;;;;94.38;48.47;;;;;;;2.30;100.00;97929.28;5047347;28;20064;-74
2024/01/18 10:13:56;;;;;;;93.38;48.50;;;;;;;2.37;100.00;97930.41;5061086;22;20065;-76
2024/01/18 10:16:32;;;;;;;85.10;46.58;;;;;;;2.36;100.00;97926.16;5047463;28;20501;-77
2024/01/18 10:19:03;;;;;;;99.55;49.65;;;;;;;2.10;100.00;97927.56;5031142;28;20086;-77
2024/01/18 10:21:29;;;;;;;96.80;48.15;;;;;;;2.15;100.00;97927.97;5047340;28;20106;-78
2024/01/18 10:23:55;;;;;;;96.15;49.08;;;;;;;2.17;100.00;97936.50;5048476;28;20474;-77
2024/01/18 10:26:22;;;;;;;97.88;50.15;;;;;;;2.02;100.00;97921.22;5049033;28;20117;-75
2024/01/18 10:28:49;;;;;;;99.13;50.35;;;;;;;2.25;100.00;97931.44;5051665;28;20122;-78
2024/01/18 10:31:14;;;;;;;96.07;50.45;;;;;;;2.41;100.00;97930.03;5052415;28;20032;-79
2024/01/18 10:33:40;;;;;;;93.15;48.55;;;;;;;2.45;100.00;97920.16;5052129;28;20033;-78
2024/01/18 10:36:06;;;;;;;103.20;50.88;;;;;;;2.36;100.00;97920.94;5050450;28;20041;-78
2024/01/18 10:38:32;;;;;;;92.38;48.55;;;;;;;2.48;100.00;97938.94;5036187;28;20056;-78
2024/01/18 10:40:59;;;;;;;92.90;47.65;;;;;;;2.17;100.00;97952.09;5052137;28;20032;-78
2024/01/18 10:43:30;;;;;;;88.70;48.67;;;;;;;2.22;100.00;97924.75;5051850;28;20057;-78
2024/01/18 10:45:57;;;;;;;96.32;48.90;;;;;;;2.36;100.00;97926.16;5052031;28;20059;-78
2024/01/18 10:48:22;;;;;;;91.70;48.22;;;;;;;2.52;100.00;97925.69;5052048;28;20477;-78
2024/01/18 10:50:53;;;;;;;93.32;48.80;;;;;;;2.61;100.00;97920.50;5052012;28;20158;-78
2024/01/18 10:53:19;;;;;;;93.47;46.78;;;;;;;2.18;100.00;97932.94;5051794;28;20036;-79
2024/01/18 10:55:45;;;;;;;92.93;49.78;;;;;;;2.39;100.00;97925.91;5052117;28;20037;-78
2024/01/18 10:58:11;;;;;;;89.95;46.47;;;;;;;2.36;100.00;97941.75;5051455;28;20033;-79
2024/01/18 11:00:36;;;;;;;86.38;46.88;;;;;;;2.33;100.00;97934.22;5047808;28;20064;-78
2024/01/18 11:03:03;;;;;;;87.45;47.40;;;;;;;2.16;100.00;97925.25;5053522;28;20033;-75
2024/01/18 11:05:30;;;;;;;93.25;48.22;;;;;;;2.30;100.00;97926.66;5052645;28;20119;-78
2024/01/18 11:07:57;;;;;;;91.65;48.53;;;;;;;2.19;100.00;97929.34;5052302;28;20120;-79